createdAt,value
2018-03-15T00:00:14.325Z,82.20
2018-03-15T00:02:42.476Z,82.30
2018-03-15T00:05:11.363Z,82.50
2018-03-15T00:07:40.260Z,82.50
2018-03-15T00:10:09.140Z,82.40
2018-03-15T00:12:37.274Z,82.40
2018-03-15T00:15:05.378Z,82.70
2018-03-15T00:17:33.538Z,82.90
2018-03-15T00:20:01.698Z,82.80
2018-03-15T00:22:32.566Z,82.50
2018-03-15T00:25:00.680Z,82.80
2018-03-15T00:27:28.818Z,82.90
2018-03-15T00:29:57.692Z,83.00
2018-03-15T00:32:25.845Z,82.90
2018-03-15T00:34:53.960Z,83.60
2018-03-15T00:37:22.860Z,84.10
2018-03-15T00:39:51.731Z,83.20
2018-03-15T00:42:19.877Z,83.20
2018-03-15T00:44:47.985Z,83.00
2018-03-15T00:47:16.894Z,83.40
2018-03-15T00:49:45.013Z,83.40
2018-03-15T00:52:14.745Z,83.80
2018-03-15T00:54:42.861Z,83.80
2018-03-15T00:57:11.004Z,83.40
2018-03-15T00:59:39.902Z,84.60
2018-03-15T01:02:08.073Z,84.60
2018-03-15T01:04:36.956Z,83.70
2018-03-15T01:07:05.107Z,83.70
2018-03-15T01:09:33.211Z,83.60
2018-03-15T01:12:03.095Z,83.10
2018-03-15T01:14:31.220Z,83.10
2018-03-15T01:16:59.370Z,83.10
2018-03-15T01:19:28.253Z,83.40
2018-03-15T01:21:56.396Z,83.20
2018-03-15T01:24:24.533Z,83.10
2018-03-15T01:26:52.642Z,82.90
2018-03-15T01:29:20.766Z,82.90
2018-03-15T01:31:48.885Z,82.80
2018-03-15T01:34:17.018Z,83.00
2018-03-15T01:36:45.131Z,83.10
2018-03-15T01:39:13.273Z,82.80
2018-03-15T01:41:41.384Z,83.00
2018-03-15T01:44:09.513Z,82.80
2018-03-15T01:46:37.623Z,82.60
2018-03-15T01:49:06.565Z,83.10
2018-03-15T01:51:35.581Z,83.80
2018-03-15T01:54:03.729Z,84.40
2018-03-15T01:56:32.617Z,84.20
2018-03-15T01:59:01.545Z,84.00
2018-03-15T02:01:29.685Z,84.00
2018-03-15T02:03:58.598Z,82.90
2018-03-15T02:06:26.764Z,82.90
2018-03-15T02:08:54.902Z,82.40
2018-03-15T02:11:23.022Z,84.20
2018-03-15T02:13:51.222Z,84.10
2018-03-15T02:16:19.336Z,83.30
2018-03-15T02:18:48.232Z,83.90
2018-03-15T02:21:17.104Z,83.30
2018-03-15T02:23:45.265Z,83.20
2018-03-15T02:26:13.400Z,83.40
2018-03-15T02:28:41.534Z,83.00
2018-03-15T02:31:10.418Z,83.80
2018-03-15T02:33:38.555Z,83.30
2018-03-15T02:36:06.687Z,83.60
2018-03-15T02:38:35.598Z,83.50
2018-03-15T02:41:03.710Z,83.50
2018-03-15T02:43:31.847Z,83.10
2018-03-15T02:46:01.093Z,83.00
2018-03-15T02:48:29.248Z,81.80
2018-03-15T02:50:57.369Z,81.50
2018-03-15T02:53:26.288Z,82.00
2018-03-15T02:55:54.413Z,82.00
2018-03-15T02:58:22.586Z,82.10
2018-03-15T03:00:50.711Z,82.40
2018-03-15T03:03:18.853Z,82.60
2018-03-15T03:05:47.733Z,83.30
2018-03-15T03:08:16.653Z,84.00
2018-03-15T03:10:44.781Z,84.00
2018-03-15T03:13:12.938Z,83.60
2018-03-15T03:15:41.968Z,83.80
2018-03-15T03:18:10.860Z,83.60
2018-03-15T03:20:39.750Z,84.40
2018-03-15T03:23:08.670Z,84.50
2018-03-15T03:25:36.779Z,84.40
2018-03-15T03:28:05.031Z,85.30
2018-03-15T03:30:33.158Z,84.40
2018-03-15T03:33:01.307Z,85.20
2018-03-15T03:35:29.419Z,84.10
2018-03-15T03:37:57.564Z,84.20
2018-03-15T03:40:25.685Z,84.60
2018-03-15T03:42:53.830Z,84.40
2018-03-15T03:45:22.717Z,84.30
2018-03-15T03:47:51.692Z,84.40
2018-03-15T03:50:19.833Z,83.70
2018-03-15T03:52:47.967Z,83.10
2018-03-15T03:55:16.855Z,84.20
2018-03-15T03:57:45.756Z,84.60
2018-03-15T04:00:13.872Z,84.40
2018-03-15T04:02:42.002Z,84.40
2018-03-15T04:05:10.166Z,84.80
2018-03-15T04:07:39.046Z,84.90
2018-03-15T04:10:07.960Z,84.70
2018-03-15T04:12:36.081Z,84.70
2018-03-15T04:15:04.224Z,84.80
2018-03-15T04:17:32.353Z,84.90
2018-03-15T04:20:00.500Z,85.00
2018-03-15T04:22:28.617Z,84.60
2018-03-15T04:24:57.526Z,84.80
2018-03-15T04:27:25.641Z,84.80
2018-03-15T04:29:53.785Z,84.90
2018-03-15T04:32:21.905Z,85.10
2018-03-15T04:34:50.044Z,86.00
2018-03-15T04:37:18.164Z,87.40
2018-03-15T04:39:47.085Z,87.40
2018-03-15T04:42:15.208Z,87.40
2018-03-15T04:44:43.381Z,86.50
2018-03-15T04:47:11.498Z,85.90
2018-03-15T04:49:39.654Z,85.10
2018-03-15T04:52:08.533Z,85.20
2018-03-15T04:54:36.686Z,85.20
2018-03-15T04:57:04.807Z,85.10
2018-03-15T04:59:32.961Z,85.20
2018-03-15T05:02:01.856Z,83.60
2018-03-15T05:04:30.771Z,84.20
2018-03-15T05:06:59.682Z,84.20
2018-03-15T05:09:27.828Z,85.80
2018-03-15T05:11:55.953Z,86.10
2018-03-15T05:14:24.100Z,86.50
2018-03-15T05:16:52.221Z,87.50
2018-03-15T05:19:20.355Z,88.20
2018-03-15T05:21:48.484Z,87.80
2018-03-15T05:24:17.393Z,87.10
2018-03-15T05:26:45.615Z,87.10
2018-03-15T05:29:14.538Z,86.80
2018-03-15T05:31:43.424Z,87.10
2018-03-15T05:34:12.338Z,87.40
2018-03-15T05:36:40.444Z,87.30
2018-03-15T05:39:08.594Z,86.80
2018-03-15T05:41:37.086Z,85.00
2018-03-15T05:44:05.438Z,85.10
2018-03-15T05:46:33.757Z,84.00
2018-03-15T05:49:01.964Z,84.70
2018-03-15T05:51:30.862Z,84.10
2018-03-15T05:53:59.779Z,84.40
2018-03-15T05:56:27.965Z,84.40
2018-03-15T05:58:56.165Z,84.10
2018-03-15T06:01:24.610Z,81.90
2018-03-15T06:03:55.259Z,79.40
2018-03-15T06:06:23.463Z,76.20
2018-03-15T06:08:52.376Z,73.60
2018-03-15T06:11:21.419Z,67.90
2018-03-15T06:13:49.600Z,67.70
2018-03-15T06:16:17.737Z,65.10
2018-03-15T06:18:46.646Z,61.10
2018-03-15T06:21:14.773Z,61.00
2018-03-15T06:23:42.921Z,58.30
2018-03-15T06:26:11.239Z,57.70
2018-03-15T06:28:39.447Z,55.10
2018-03-15T06:31:07.630Z,52.20
2018-03-15T06:33:35.786Z,50.90
2018-03-15T06:36:03.920Z,49.10
2018-03-15T06:38:32.072Z,47.40
2018-03-15T06:41:00.196Z,45.80
2018-03-15T06:43:29.086Z,43.40
2018-03-15T06:45:57.992Z,43.50
2018-03-15T06:48:27.985Z,43.50
2018-03-15T06:50:57.392Z,44.50
2018-03-15T06:53:25.585Z,44.20
2018-03-15T06:55:53.833Z,42.80
2018-03-15T06:58:21.964Z,43.00
2018-03-15T07:00:50.119Z,42.80
2018-03-15T07:03:18.250Z,42.50
2018-03-15T07:05:46.402Z,40.00
2018-03-15T07:08:14.520Z,38.80
2018-03-15T07:10:43.436Z,37.80
2018-03-15T07:13:11.573Z,37.80
2018-03-15T07:15:39.736Z,38.10
2018-03-15T07:18:07.950Z,36.70
2018-03-15T07:20:36.105Z,37.20
2018-03-15T07:23:04.997Z,35.70
2018-03-15T07:25:33.925Z,36.00
2018-03-15T07:28:02.049Z,36.00
2018-03-15T07:30:30.233Z,35.80
2018-03-15T07:32:58.345Z,33.90
2018-03-15T07:35:26.517Z,31.80
2018-03-15T07:37:54.644Z,31.70
2018-03-15T07:40:22.793Z,31.80
2018-03-15T07:42:50.927Z,30.50
2018-03-15T07:45:19.920Z,29.80
2018-03-15T07:47:48.784Z,28.30
2018-03-15T07:50:17.700Z,27.60
2018-03-15T07:52:45.825Z,26.50
2018-03-15T07:55:13.996Z,26.90
2018-03-15T07:57:42.121Z,26.60
2018-03-15T08:00:10.260Z,26.10
2018-03-15T08:02:38.398Z,26.60
2018-03-15T08:05:06.540Z,27.60
2018-03-15T08:07:34.670Z,27.10
2018-03-15T08:10:02.823Z,27.70
2018-03-15T08:12:30.953Z,28.40
2018-03-15T08:14:59.108Z,28.10
2018-03-15T08:17:27.997Z,27.80
2018-03-15T08:19:56.909Z,27.00
2018-03-15T08:22:25.041Z,26.90
2018-03-15T08:24:53.190Z,26.20
2018-03-15T08:35:15.420Z,25.40
2018-03-15T08:37:43.540Z,25.20
2018-03-15T08:40:11.755Z,25.40
2018-03-15T08:42:40.419Z,25.40
2018-03-15T08:45:08.567Z,25.40
2018-03-15T08:47:36.682Z,25.20
2018-03-15T08:50:04.868Z,26.80
2018-03-15T08:52:32.978Z,28.90
2018-03-15T08:55:01.106Z,29.20
2018-03-15T08:57:29.214Z,28.20
2018-03-15T08:59:57.359Z,29.30
2018-03-15T09:02:25.470Z,29.10
2018-03-15T09:04:53.638Z,28.80
2018-03-15T09:07:21.746Z,30.00
2018-03-15T09:09:49.878Z,31.40
2018-03-15T09:12:17.991Z,31.70
2018-03-15T09:14:46.161Z,31.90
2018-03-15T09:17:14.271Z,32.50
2018-03-15T09:19:42.412Z,32.50
2018-03-15T09:22:10.515Z,33.10
2018-03-15T09:24:38.652Z,32.90
2018-03-15T09:27:06.779Z,34.10
2018-03-15T09:29:36.271Z,36.20
2018-03-15T09:32:04.385Z,39.20
2018-03-15T09:34:32.537Z,41.70
2018-03-15T09:37:00.658Z,41.90
2018-03-15T09:39:29.559Z,41.50
2018-03-15T09:41:57.692Z,41.40
2018-03-15T09:44:25.837Z,41.30
2018-03-15T09:46:53.992Z,41.00
2018-03-15T09:49:22.134Z,42.60
2018-03-15T09:51:50.274Z,42.40
2018-03-15T09:54:18.410Z,43.10
2018-03-15T09:56:46.571Z,43.10
2018-03-15T09:59:14.738Z,43.30
2018-03-15T10:01:43.650Z,43.90
2018-03-15T10:04:11.758Z,43.90
2018-03-15T10:06:40.709Z,44.00
2018-03-15T10:09:08.865Z,44.00
2018-03-15T10:11:37.778Z,42.30
2018-03-15T10:14:05.912Z,42.30
2018-03-15T10:16:34.068Z,42.70
2018-03-15T10:19:02.583Z,46.30
2018-03-15T10:21:31.514Z,48.20
2018-03-15T10:24:00.990Z,48.20
2018-03-15T10:26:29.161Z,50.40
2018-03-15T10:28:58.062Z,51.80
2018-03-15T10:31:26.968Z,52.90
2018-03-15T10:33:55.102Z,52.80
2018-03-15T10:36:24.014Z,53.10
2018-03-15T10:38:52.142Z,53.10
2018-03-15T10:41:20.739Z,54.20
2018-03-15T10:43:48.875Z,54.70
2018-03-15T10:46:17.029Z,53.30
2018-03-15T10:48:46.530Z,53.90
2018-03-15T10:51:14.695Z,55.80
2018-03-15T10:53:42.837Z,56.10
2018-03-15T10:56:11.004Z,56.60
2018-03-15T10:58:39.145Z,55.90
2018-03-15T11:01:08.392Z,57.00
2018-03-15T11:03:43.071Z,56.40
2018-03-15T11:06:11.240Z,56.40
2018-03-15T11:08:39.370Z,55.80
2018-03-15T11:11:08.298Z,55.70
2018-03-15T11:13:36.496Z,55.70
2018-03-15T11:16:04.653Z,57.10
2018-03-15T11:18:32.790Z,55.20
2018-03-15T11:21:01.703Z,56.30
2018-03-15T11:23:29.842Z,56.30
2018-03-15T11:25:58.658Z,55.90
2018-03-15T11:28:26.801Z,55.30
2018-03-15T11:30:54.944Z,55.30
2018-03-15T11:33:23.586Z,56.00
2018-03-15T11:35:51.754Z,55.00
2018-03-15T11:38:20.655Z,54.70
2018-03-15T11:40:49.574Z,54.60
2018-03-15T11:43:17.729Z,54.60
2018-03-15T11:45:45.892Z,55.90
2018-03-15T11:48:14.799Z,56.10
2018-03-15T11:50:42.998Z,56.10
2018-03-15T11:53:11.084Z,54.10
2018-03-15T11:55:39.249Z,55.60
2018-03-15T11:58:07.375Z,55.20
2018-03-15T12:00:35.584Z,56.40
2018-03-15T12:03:03.745Z,58.40
2018-03-15T12:05:31.898Z,56.30
2018-03-15T12:08:00.032Z,57.50
2018-03-15T12:10:28.212Z,57.00
2018-03-15T12:12:56.348Z,55.50
2018-03-15T12:15:24.622Z,57.20
2018-03-15T12:17:52.762Z,57.00
2018-03-15T12:20:20.897Z,58.20
2018-03-15T12:22:49.024Z,56.80
2018-03-15T12:25:17.135Z,59.40
2018-03-15T12:27:45.269Z,57.40
2018-03-15T12:30:13.375Z,56.60
2018-03-15T12:32:41.918Z,57.20
2018-03-15T12:35:10.027Z,58.30
2018-03-15T12:37:38.183Z,57.60
2018-03-15T12:40:07.067Z,57.00
2018-03-15T12:42:35.415Z,57.00
2018-03-15T12:45:06.862Z,56.40
2018-03-15T12:47:38.560Z,57.40
2018-03-15T12:50:06.673Z,57.10
2018-03-15T12:52:34.812Z,57.20
2018-03-15T12:55:03.700Z,58.40
2018-03-15T12:57:32.618Z,57.30
2018-03-15T13:00:00.733Z,57.20
2018-03-15T13:02:28.864Z,57.30
2018-03-15T13:04:57.061Z,58.70
2018-03-15T13:07:25.208Z,57.20
2018-03-15T13:09:53.319Z,57.60
2018-03-15T13:12:21.476Z,57.10
2018-03-15T13:14:49.600Z,57.10
2018-03-15T13:17:18.520Z,57.10
2018-03-15T13:19:47.877Z,57.10
2018-03-15T13:22:16.099Z,57.20
2018-03-15T13:24:46.880Z,57.00
2018-03-15T13:27:15.883Z,56.20
2018-03-15T13:29:44.072Z,55.60
2018-03-15T13:32:15.378Z,57.20
2018-03-15T13:34:47.259Z,58.00
2018-03-15T13:37:21.047Z,59.30
2018-03-15T13:39:49.166Z,59.30
2018-03-15T13:42:18.081Z,57.60
2018-03-15T13:44:46.204Z,57.60
2018-03-15T13:47:14.323Z,56.10
2018-03-15T13:49:42.474Z,58.40
2018-03-15T13:52:11.363Z,57.10
2018-03-15T13:54:40.259Z,56.80
2018-03-15T13:57:09.152Z,57.90
2018-03-15T13:59:38.071Z,57.20
2018-03-15T14:02:06.186Z,57.20
2018-03-15T14:04:34.328Z,57.50
2018-03-15T14:07:02.520Z,57.10
2018-03-15T14:09:30.673Z,57.20
2018-03-15T14:11:58.793Z,57.80
2018-03-15T14:14:26.978Z,58.10
2018-03-15T14:16:55.162Z,57.60
2018-03-15T14:19:24.071Z,58.20
2018-03-15T14:21:52.186Z,58.20
2018-03-15T14:24:20.323Z,58.40
2018-03-15T14:26:48.445Z,58.40
2018-03-15T14:29:17.595Z,57.90
2018-03-15T14:31:45.692Z,58.70
2018-03-15T14:34:13.868Z,60.10
2018-03-15T14:36:41.985Z,61.10
2018-03-15T14:39:10.156Z,60.90
2018-03-15T14:41:38.263Z,61.50
2018-03-15T14:44:06.421Z,60.70
2018-03-15T14:46:35.331Z,61.20
2018-03-15T14:49:04.236Z,61.60
2018-03-15T14:51:32.374Z,61.50
2018-03-15T14:54:00.502Z,61.80
2018-03-15T14:56:28.652Z,62.40
2018-03-15T14:58:56.800Z,62.80
2018-03-15T15:01:25.671Z,64.50
2018-03-15T15:03:54.882Z,64.40
2018-03-15T15:06:23.193Z,63.90
2018-03-15T15:08:51.327Z,64.50
2018-03-15T15:11:19.439Z,65.10
2018-03-15T15:13:48.339Z,65.30
2018-03-15T15:16:16.458Z,65.30
2018-03-15T15:18:44.570Z,66.00
2018-03-15T15:21:13.478Z,65.60
2018-03-15T15:23:41.607Z,65.50
2018-03-15T15:26:09.736Z,65.00
2018-03-15T15:28:37.860Z,64.90
2018-03-15T15:31:05.983Z,66.00
2018-03-15T15:33:34.087Z,65.60
2018-03-15T15:36:02.269Z,66.70
2018-03-15T15:38:30.543Z,67.00
2018-03-15T15:40:58.684Z,67.10
2018-03-15T15:43:26.813Z,67.80
2018-03-15T15:45:54.944Z,67.60
2018-03-15T15:48:23.071Z,67.90
2018-03-15T15:50:52.375Z,67.90
2018-03-15T15:53:21.259Z,68.10
2018-03-15T15:55:49.401Z,68.10
2018-03-15T15:58:17.945Z,68.00
2018-03-15T16:00:46.183Z,69.10
2018-03-15T16:03:14.301Z,68.20
2018-03-15T16:05:42.438Z,69.10
2018-03-15T16:08:11.313Z,69.60
2018-03-15T16:10:39.457Z,69.60
2018-03-15T16:13:07.570Z,68.80
2018-03-15T16:15:35.715Z,69.60
2018-03-15T16:18:03.834Z,69.90
2018-03-15T16:20:32.786Z,69.60
2018-03-15T16:23:00.893Z,69.50
2018-03-15T16:25:29.020Z,69.30
2018-03-15T16:27:57.137Z,69.90
2018-03-15T16:30:25.273Z,69.80
2018-03-15T16:32:54.146Z,70.10
2018-03-15T16:35:22.288Z,70.10
2018-03-15T16:37:51.164Z,69.70
2018-03-15T16:40:20.165Z,70.50
2018-03-15T16:42:49.041Z,70.00
2018-03-15T16:45:17.175Z,70.00
2018-03-15T16:47:45.295Z,69.80
2018-03-15T16:50:13.433Z,68.90
2018-03-15T16:52:41.541Z,68.90
2018-03-15T16:55:10.422Z,69.10
2018-03-15T16:57:38.566Z,68.70
2018-03-15T17:00:06.707Z,68.70
2018-03-15T17:02:35.180Z,68.50
2018-03-15T17:05:05.721Z,68.40
2018-03-15T17:07:33.859Z,68.20
2018-03-15T17:10:01.981Z,68.40
2018-03-15T17:12:30.115Z,69.20
2018-03-15T17:14:58.222Z,69.70
2018-03-15T17:17:26.382Z,71.80
2018-03-15T17:19:55.286Z,72.30
2018-03-15T17:22:24.175Z,73.20
2018-03-15T17:24:52.310Z,73.10
2018-03-15T17:27:21.039Z,74.10
2018-03-15T17:29:49.714Z,74.60
2018-03-15T17:32:18.616Z,75.00
2018-03-15T17:34:47.497Z,75.00
2018-03-15T17:37:16.436Z,75.40
2018-03-15T17:39:44.552Z,75.40
2018-03-15T17:42:12.686Z,75.90
2018-03-15T17:44:40.809Z,76.00
2018-03-15T17:47:09.710Z,76.50
2018-03-15T17:49:38.592Z,76.60
2018-03-15T17:52:07.487Z,77.10
2018-03-15T17:54:36.368Z,77.00
2018-03-15T17:57:04.503Z,76.90
2018-03-15T17:59:32.744Z,76.90
2018-03-15T18:02:00.941Z,76.90
2018-03-15T18:04:29.260Z,77.20
2018-03-15T18:06:57.459Z,77.10
2018-03-15T18:09:26.334Z,77.70
2018-03-15T18:11:54.965Z,77.80
2018-03-15T18:14:23.202Z,77.70
2018-03-15T18:16:52.097Z,77.80
2018-03-15T18:19:20.966Z,77.70
2018-03-15T18:21:49.083Z,77.70
2018-03-15T18:24:17.216Z,78.10
2018-03-15T18:26:45.382Z,78.20
2018-03-15T18:29:13.531Z,78.90
2018-03-15T18:31:42.047Z,78.00
2018-03-15T18:34:10.184Z,78.20
2018-03-15T18:36:38.292Z,78.30
2018-03-15T18:39:06.439Z,78.20
2018-03-15T18:41:34.556Z,78.60
2018-03-15T18:44:03.459Z,78.30
2018-03-15T18:46:31.563Z,79.00
2018-03-15T18:48:59.705Z,78.20
2018-03-15T18:51:27.828Z,78.20
2018-03-15T18:53:56.012Z,78.60
2018-03-15T18:56:24.121Z,78.70
2018-03-15T18:58:52.272Z,79.00
2018-03-15T19:01:21.152Z,78.80
2018-03-15T19:03:49.278Z,78.80
2018-03-15T19:06:17.381Z,78.90
2018-03-15T19:08:46.272Z,78.70
2018-03-15T19:11:14.388Z,78.70
2018-03-15T19:13:43.290Z,78.40
2018-03-15T19:16:11.413Z,78.40
2018-03-15T19:18:39.531Z,78.20
2018-03-15T19:21:07.652Z,77.70
2018-03-15T19:23:35.783Z,77.60
2018-03-15T19:26:03.904Z,77.70
2018-03-15T19:28:32.036Z,77.70
2018-03-15T19:31:00.158Z,77.70
2018-03-15T19:33:28.293Z,77.80
2018-03-15T19:35:56.396Z,77.50
2018-03-15T19:38:24.535Z,77.70
2018-03-15T19:40:52.689Z,78.00
2018-03-15T19:43:21.580Z,78.70
2018-03-15T19:45:49.701Z,78.70
2018-03-15T19:48:17.822Z,78.90
2018-03-15T19:50:46.695Z,79.30
2018-03-15T19:53:14.838Z,79.20
2018-03-15T19:55:42.936Z,79.20
2018-03-15T19:58:11.077Z,79.30
2018-03-15T20:00:39.179Z,79.50
2018-03-15T20:03:07.375Z,79.30
2018-03-15T20:05:36.252Z,79.80
2018-03-15T20:08:04.444Z,79.70
2018-03-15T20:10:33.306Z,79.20
2018-03-15T20:13:01.453Z,79.20
2018-03-15T20:15:35.836Z,79.00
2018-03-15T20:18:03.972Z,79.00
2018-03-15T20:20:32.082Z,79.10
2018-03-15T20:23:06.696Z,79.10
2018-03-15T20:25:35.574Z,79.50
2018-03-15T20:28:10.158Z,79.20
2018-03-15T20:30:38.284Z,79.20
2018-03-15T20:33:13.055Z,79.00
2018-03-15T20:35:42.028Z,79.00
2018-03-15T20:38:10.382Z,79.50
2018-03-15T20:40:45.057Z,79.40
2018-03-15T20:43:13.159Z,79.30
2018-03-15T20:45:47.114Z,79.60
2018-03-15T20:48:20.963Z,79.60
2018-03-15T20:50:49.099Z,79.50
2018-03-15T20:53:17.208Z,79.60
2018-03-15T20:55:45.401Z,79.70
2018-03-15T20:58:13.616Z,80.00
2018-03-15T21:00:41.787Z,79.90
2018-03-15T21:03:09.889Z,80.00
2018-03-15T21:05:38.028Z,80.10
2018-03-15T21:08:06.143Z,80.00
2018-03-15T21:10:34.279Z,80.00
2018-03-15T21:13:02.395Z,80.00
2018-03-15T21:15:30.537Z,80.20
2018-03-15T21:17:58.646Z,80.10
2018-03-15T21:20:26.774Z,80.20
2018-03-15T21:22:54.891Z,80.40
2018-03-15T21:25:23.023Z,80.80
2018-03-15T21:27:51.147Z,81.50
2018-03-15T21:30:19.297Z,81.80
2018-03-15T21:32:47.407Z,82.20
2018-03-15T21:35:15.545Z,81.90
2018-03-15T21:37:43.676Z,82.10
2018-03-15T21:40:11.802Z,82.40
2018-03-15T21:42:39.903Z,82.20
2018-03-15T21:45:08.810Z,82.90
2018-03-15T21:47:37.750Z,82.50
2018-03-15T21:50:05.893Z,82.50
2018-03-15T21:52:34.008Z,82.80
2018-03-15T21:55:02.142Z,83.10
2018-03-15T21:57:30.263Z,83.00
2018-03-15T21:59:58.418Z,82.70
2018-03-15T22:02:26.533Z,82.80
2018-03-15T22:04:55.477Z,82.80
2018-03-15T22:07:23.590Z,82.80
2018-03-15T22:09:51.710Z,82.50
2018-03-15T22:12:19.824Z,82.80
2018-03-15T22:14:47.961Z,82.60
2018-03-15T22:17:16.088Z,82.50
2018-03-15T22:19:45.920Z,83.00
2018-03-15T22:22:14.035Z,83.00
2018-03-15T22:24:42.164Z,82.70
2018-03-15T22:27:10.288Z,82.80
2018-03-15T22:29:38.415Z,82.90
2018-03-15T22:32:06.522Z,82.70
2018-03-15T22:34:34.657Z,82.50
2018-03-15T22:37:02.770Z,82.30
2018-03-15T22:39:30.879Z,82.20
2018-03-15T22:41:59.779Z,82.40
2018-03-15T22:44:28.660Z,82.90
2018-03-15T22:46:57.553Z,82.20
2018-03-15T22:49:25.672Z,82.20
2018-03-15T22:51:53.797Z,82.00
2018-03-15T22:54:22.689Z,81.70
2018-03-15T22:56:50.836Z,82.30
2018-03-15T22:59:18.945Z,82.20
2018-03-15T23:01:47.833Z,82.50
2018-03-15T23:04:16.721Z,82.90
2018-03-15T23:06:45.632Z,83.00
2018-03-15T23:09:13.743Z,82.90
2018-03-15T23:11:41.893Z,83.30
2018-03-15T23:14:10.867Z,83.00
2018-03-15T23:16:38.995Z,82.90
2018-03-15T23:19:07.942Z,82.60
2018-03-15T23:21:36.845Z,83.00
2018-03-15T23:24:05.000Z,82.90
2018-03-15T23:26:33.912Z,83.70
2018-03-15T23:29:02.040Z,83.60
2018-03-15T23:31:30.174Z,82.70
2018-03-15T23:33:58.285Z,82.60
2018-03-15T23:36:26.422Z,83.00
2018-03-15T23:38:54.540Z,83.00
2018-03-15T23:41:22.688Z,82.80
2018-03-15T23:43:50.817Z,83.00
2018-03-15T23:46:19.016Z,82.60
2018-03-15T23:48:47.118Z,82.90
2018-03-15T23:51:15.254Z,83.00
2018-03-15T23:53:43.361Z,82.90
2018-03-15T23:56:11.491Z,83.30
2018-03-15T23:58:39.604Z,83.10
